Time;durP1;ratioP1;P1;durP2;ratioP2;P2;SDS_P1;SDS_P2;PMS_P1;PMS_P2;Temp;Humidity;BMP_temperature;BMP_pressure;BME280_temperature;BME280_humidity;BME280_pressure;Samples;Min_cycle;Max_cycle;Signal;HPM_P1;HPM_P2
2021/01/29 00:01:17;;;;;;;14.52;7.72;;;11.10;72.80;;;;;;6203210;28;20074;-74
2021/01/29 00:04:18;;;;;;;12.85;7.28;;;11.20;72.80;;;;;;6204325;28;20341;-74
2021/01/29 00:07:19;;;;;;;17.67;7.85;;;11.10;72.80;;;;;;6198860;28;20049;-75
2021/01/29 00:10:20;;;;;;;18.73;7.43;;;11.20;72.80;;;;;;6194021;28;20027;-75
2021/01/29 00:13:22;;;;;;;16.92;7.35;;;11.10;73.60;;;;;;6179034;28;20047;-76
2021/01/29 00:16:23;;;;;;;20.05;7.38;;;11.10;73.00;;;;;;6180584;28;20041;-74
2021/01/29 00:19:24;;;;;;;15.57;7.78;;;11.20;73.10;;;;;;6177993;28;20388;-74
2021/01/29 00:22:26;;;;;;;12.55;6.65;;;11.20;73.20;;;;;;6199911;28;20048;-75
2021/01/29 00:25:33;;;;;;;12.32;6.18;;;11.20;73.20;;;;;;6178057;28;20050;-74
2021/01/29 00:28:34;;;;;;;10.02;6.05;;;11.20;73.10;;;;;;6183416;28;20491;-75
2021/01/29 00:31:37;;;;;;;13.98;6.57;;;11.20;73.40;;;;;;6182973;28;20133;-75
2021/01/29 00:34:38;;;;;;;17.70;7.60;;;11.20;73.30;;;;;;6195228;28;20035;-75
2021/01/29 00:37:39;;;;;;;12.32;6.47;;;11.10;73.30;;;;;;6181722;28;20073;-74
2021/01/29 00:40:41;;;;;;;12.40;6.78;;;11.10;73.70;;;;;;6177082;28;20376;-75
2021/01/29 00:43:42;;;;;;;11.43;5.95;;;11.10;74.10;;;;;;6179855;28;20117;-75
2021/01/29 00:46:43;;;;;;;12.45;6.80;;;11.20;74.20;;;;;;6179460;28;20037;-77
2021/01/29 00:49:44;;;;;;;12.60;6.97;;;11.20;75.20;;;;;;6183047;28;20027;-75
2021/01/29 00:52:45;;;;;;;12.05;6.38;;;11.30;74.50;;;;;;6198462;28;20042;-73
2021/01/29 00:55:46;;;;;;;13.88;6.57;;;11.30;74.60;;;;;;6164791;28;20043;-74
2021/01/29 00:58:57;;;;;;;12.73;5.93;;;11.40;74.40;;;;;;6181678;28;20042;-74
2021/01/29 01:02:26;;;;;;;;;;;11.30;74.20;;;;;;6211380;28;20038;-73
2021/01/29 01:05:28;;;;;;;15.85;6.28;;;11.30;74.20;;;;;;6196396;28;19922;-74
2021/01/29 01:08:30;;;;;;;8.45;5.22;;;11.30;74.10;;;;;;6181404;28;20112;-74
2021/01/29 01:12:00;;;;;;;10.02;5.93;;;11.20;74.20;;;;;;6202702;28;20038;-74
2021/01/29 01:15:25;;;;;;;12.32;6.70;;;11.30;74.30;;;;;;6189905;28;20038;-74
2021/01/29 01:18:33;;;;;;;10.65;6.35;;;11.30;74.40;;;;;;6217935;28;20113;-74
2021/01/29 01:22:00;;;;;;;12.13;5.75;;;11.30;74.40;;;;;;6187637;28;20026;-73
2021/01/29 01:25:26;;;;;;;12.68;6.47;;;11.30;74.50;;;;;;6173485;28;20027;-73
2021/01/29 01:28:28;;;;;;;15.65;6.47;;;11.30;74.70;;;;;;6193758;28;20041;-74
2021/01/29 01:31:38;;;;;;;13.77;5.88;;;11.30;74.80;;;;;;6194470;28;20030;-74
2021/01/29 01:35:18;;;;;;;9.23;5.13;;;11.40;74.70;;;;;;6215960;28;20376;-74
2021/01/29 01:38:19;;;;;;;11.45;6.07;;;11.40;74.50;;;;;;6202107;28;20547;-74
2021/01/29 01:41:22;;;;;;;11.13;5.88;;;11.20;74.20;;;;;;6187700;28;20057;-74
2021/01/29 01:44:40;;;;;;;10.50;5.63;;;11.20;74.20;;;;;;6208045;28;20041;-74
2021/01/29 01:47:48;;;;;;;11.77;5.25;;;11.20;74.40;;;;;;6201376;28;20487;-75
2021/01/29 01:51:33;;;;;;;9.10;5.25;;;11.20;74.50;;;;;;6200644;28;20097;-74
2021/01/29 01:54:47;;;;;;;7.45;4.65;;;11.10;74.40;;;;;;6178952;28;20101;-75
2021/01/29 01:57:52;;;;;;;7.55;4.82;;;11.10;74.40;;;;;;6198230;28;20124;-74
2021/01/29 02:01:02;;;;;;;6.75;4.15;;;11.20;74.60;;;;;;6192992;28;20391;-74
2021/01/29 02:04:26;;;;;;;6.50;4.25;;;11.10;74.60;;;;;;6181524;28;20034;-74
2021/01/29 02:07:52;;;;;;;8.13;3.92;;;11.10;74.60;;;;;;6179968;28;20031;-74
2021/01/29 02:11:22;;;;;;;5.97;3.67;;;11.20;74.60;;;;;;6188913;28;20416;-75
2021/01/29 02:14:56;;;;;;;6.78;3.83;;;11.30;74.70;;;;;;6098266;29;20052;-74
2021/01/29 02:18:38;;;;;;;6.10;3.40;;;11.30;74.70;;;;;;6084981;29;20044;-75
2021/01/29 02:22:26;;;;;;;7.55;4.15;;;11.40;75.70;;;;;;6104037;29;20047;-75
2021/01/29 02:25:57;;;;;;;4.63;3.43;;;11.50;74.80;;;;;;5983724;29;20412;-74
2021/01/29 02:29:19;;;;;;;6.47;3.42;;;11.50;74.70;;;;;;6000402;29;20057;-75
2021/01/29 02:32:35;;;;;;;;;;;11.60;74.60;;;;;;5984206;29;20046;-75
2021/01/29 02:36:00;;;;;;;6.40;3.85;;;11.60;74.60;;;;;;6000685;29;20356;-74
2021/01/29 02:39:09;;;;;;;7.50;3.63;;;11.60;74.50;;;;;;5985888;29;20085;-75
2021/01/29 02:43:06;;;;;;;6.70;3.72;;;11.60;74.30;;;;;;5988225;29;20163;-75
2021/01/29 02:47:05;;;;;;;5.82;3.85;;;11.50;74.20;;;;;;5896998;30;20036;-75
2021/01/29 02:50:46;;;;;;;7.78;3.72;;;11.50;74.20;;;;;;5934537;29;20042;-74
2021/01/29 02:54:32;;;;;;;6.28;3.35;;;11.50;74.10;;;;;;5962032;29;20562;-74
2021/01/29 02:58:18;;;;;;;6.78;4.05;;;11.50;74.10;;;;;;5909285;29;20104;-74
2021/01/29 03:01:51;;;;;;;7.32;4.13;;;11.50;74.10;;;;;;5947036;29;20047;-74
2021/01/29 03:05:25;;;;;;;5.75;3.83;;;11.50;74.10;;;;;;5935895;30;20103;-75
2021/01/29 03:08:52;;;;;;;6.88;3.67;;;11.60;74.00;;;;;;5919681;30;20046;-75
2021/01/29 03:12:16;;;;;;;6.18;3.60;;;11.50;74.00;;;;;;5928449;29;20039;-75
2021/01/29 03:15:41;;;;;;;5.28;3.22;;;11.60;74.20;;;;;;5938440;29;20039;-75
2021/01/29 03:19:09;;;;;;;6.18;3.67;;;11.60;75.00;;;;;;5976745;29;20030;-74
2021/01/29 03:22:55;;;;;;;5.93;3.35;;;11.60;74.10;;;;;;5978578;29;20038;-75
2021/01/29 03:26:25;;;;;;;6.78;3.63;;;11.70;74.20;;;;;;5975277;29;20046;-74
2021/01/29 03:29:52;;;;;;;6.22;3.75;;;11.70;74.00;;;;;;5985840;29;20118;-75
2021/01/29 03:33:30;;;;;;;7.60;4.35;;;11.80;73.90;;;;;;6010249;29;20488;-74
2021/01/29 03:37:02;;;;;;;8.95;4.40;;;11.70;73.70;;;;;;6042015;29;20049;-74
2021/01/29 03:40:22;;;;;;;7.18;3.83;;;11.70;73.70;;;;;;6136336;29;20477;-74
2021/01/29 03:44:07;;;;;;;7.43;3.97;;;11.80;73.80;;;;;;6126161;29;20060;-74
2021/01/29 03:47:35;;;;;;;6.88;4.03;;;11.80;73.80;;;;;;6125818;29;20048;-74
2021/01/29 03:51:05;;;;;;;6.65;4.22;;;11.80;73.70;;;;;;6172426;28;20448;-74
2021/01/29 03:54:34;;;;;;;7.65;4.30;;;11.90;73.60;;;;;;6171232;28;20137;-74
2021/01/29 03:58:12;;;;;;;8.32;4.47;;;11.90;73.60;;;;;;6183167;28;20042;-74
2021/01/29 04:01:56;;;;;;;9.25;5.10;;;11.90;73.50;;;;;;6210249;28;20050;-74
2021/01/29 04:05:33;;;;;;;6.30;4.03;;;11.80;73.80;;;;;;6206280;28;20034;-74
2021/01/29 04:09:11;;;;;;;8.48;4.60;;;11.80;73.60;;;;;;6209731;28;20038;-73
2021/01/29 04:13:00;;;;;;;7.25;3.90;;;11.80;73.70;;;;;;6189628;28;20034;-74
2021/01/29 04:16:06;;;;;;;9.23;4.47;;;11.90;73.70;;;;;;6198174;28;20026;-74
2021/01/29 04:19:17;;;;;;;10.93;4.95;;;11.90;73.50;;;;;;6201766;28;20057;-73
2021/01/29 04:22:24;;;;;;;14.30;5.30;;;11.90;73.50;;;;;;6201930;28;20054;-74
2021/01/29 04:25:36;;;;;;;12.65;5.65;;;11.90;73.50;;;;;;6203038;28;20436;-74
2021/01/29 04:28:43;;;;;;;13.45;5.80;;;11.90;73.60;;;;;;6217353;28;20045;-74
2021/01/29 04:31:47;;;;;;;6.97;3.77;;;11.90;73.60;;;;;;6204754;28;20053;-73
2021/01/29 04:34:52;;;;;;;11.05;5.68;;;12.00;73.60;;;;;;6184811;28;20045;-74
2021/01/29 04:38:11;;;;;;;8.45;5.03;;;12.00;73.60;;;;;;6201821;28;20388;-74
2021/01/29 04:41:30;;;;;;;6.43;4.13;;;12.00;73.60;;;;;;6187525;28;20081;-74
2021/01/29 04:44:57;;;;;;;9.82;5.43;;;12.00;73.80;;;;;;6194856;28;20041;-74
2021/01/29 04:48:16;;;;;;;9.25;4.57;;;12.10;74.00;;;;;;6196581;28;20038;-74
2021/01/29 04:51:54;;;;;;;11.05;5.20;;;12.10;73.80;;;;;;6195362;28;20120;-73
2021/01/29 04:55:22;;;;;;;7.20;4.25;;;12.20;73.80;;;;;;6205696;28;20050;-73
2021/01/29 04:58:35;;;;;;;13.83;4.93;;;12.20;73.70;;;;;;6195074;28;20034;-74
2021/01/29 05:02:42;;;;;;;10.38;4.55;;;12.30;73.50;;;;;;6196439;28;20353;-74
2021/01/29 05:06:22;;;;;;;11.10;5.85;;;12.30;73.50;;;;;;6214497;28;20348;-74
2021/01/29 05:10:05;;;;;;;8.35;5.03;;;12.40;73.60;;;;;;6099463;29;20029;-74
2021/01/29 05:13:31;;;;;;;10.82;5.40;;;12.40;73.70;;;;;;6099320;29;20052;-74
2021/01/29 05:16:32;;;;;;;;;;;12.40;73.60;;;;;;6104761;29;20044;-74
2021/01/29 05:20:03;;;;;;;7.38;4.25;;;12.50;73.70;;;;;;6101162;29;20341;-74
2021/01/29 05:23:10;;;;;;;8.70;5.57;;;12.50;73.50;;;;;;6099923;29;20059;-74
2021/01/29 05:26:31;;;;;;;8.80;5.38;;;12.50;73.50;;;;;;6099133;29;20051;-74
2021/01/29 05:29:56;;;;;;;9.65;5.15;;;12.40;73.50;;;;;;6105897;29;20055;-74
2021/01/29 05:33:03;;;;;;;13.18;5.78;;;12.40;73.70;;;;;;6106902;29;20044;-74
2021/01/29 05:36:12;;;;;;;9.77;5.10;;;12.30;73.80;;;;;;6105847;29;20051;-75
2021/01/29 05:39:35;;;;;;;8.00;4.80;;;12.30;73.90;;;;;;6106325;29;20047;-74
2021/01/29 05:43:03;;;;;;;9.70;4.80;;;12.40;74.00;;;;;;6103541;29;20039;-75
2021/01/29 05:46:10;;;;;;;11.17;5.03;;;12.40;73.90;;;;;;6149076;28;20065;-74
2021/01/29 05:49:20;;;;;;;8.30;4.80;;;12.40;73.80;;;;;;6202412;28;20036;-74
2021/01/29 05:52:46;;;;;;;7.00;4.30;;;12.40;73.80;;;;;;6169948;28;20030;-74
2021/01/29 05:56:24;;;;;;;7.82;4.32;;;12.50;73.80;;;;;;6177167;28;20105;-74
2021/01/29 05:59:51;;;;;;;9.38;4.30;;;12.50;73.70;;;;;;6199644;28;20113;-74
2021/01/29 06:03:08;;;;;;;11.02;4.03;;;12.50;73.70;;;;;;6202485;28;20057;-74
2021/01/29 06:06:31;;;;;;;6.18;3.60;;;12.60;73.70;;;;;;6194498;28;20451;-74
2021/01/29 06:10:08;;;;;;;6.07;3.70;;;12.60;73.60;;;;;;6198374;28;20053;-75
2021/01/29 06:13:11;;;;;;;6.25;3.67;;;12.60;73.60;;;;;;6163871;28;20042;-75
2021/01/29 06:16:57;;;;;;;5.53;3.10;;;12.60;73.50;;;;;;6179163;28;20038;-74
2021/01/29 06:20:36;;;;;;;7.55;3.60;;;12.60;73.60;;;;;;6200722;28;20058;-75
2021/01/29 06:23:46;;;;;;;5.20;3.17;;;12.50;73.50;;;;;;6203433;28;20034;-74
2021/01/29 06:27:12;;;;;;;8.38;3.72;;;12.50;73.70;;;;;;6218666;28;20065;-74
2021/01/29 06:30:35;;;;;;;7.82;4.20;;;12.50;73.80;;;;;;6200683;28;20095;-75
2021/01/29 06:34:01;;;;;;;8.80;3.65;;;12.50;73.90;;;;;;6201660;28;20041;-75
2021/01/29 06:37:23;;;;;;;9.85;4.90;;;12.50;74.00;;;;;;6205757;28;20054;-75
2021/01/29 06:40:30;;;;;;;8.98;4.25;;;12.50;73.90;;;;;;6081195;29;20492;-75
2021/01/29 06:43:58;;;;;;;9.35;4.38;;;12.50;73.80;;;;;;6124295;29;20095;-74
2021/01/29 06:47:15;;;;;;;10.02;4.22;;;12.40;73.80;;;;;;6099811;29;20493;-75
2021/01/29 06:50:18;;;;;;;9.98;4.07;;;12.50;74.00;;;;;;6121009;28;20377;-75
2021/01/29 06:53:43;;;;;;;10.60;4.63;;;12.40;74.10;;;;;;6145151;28;20496;-74
2021/01/29 06:57:31;;;;;;;9.13;3.67;;;12.40;74.10;;;;;;6139569;28;20043;-75
2021/01/29 07:00:46;;;;;;;7.68;3.53;;;12.50;74.10;;;;;;6065204;29;20483;-76
2021/01/29 07:04:21;;;;;;;6.07;3.22;;;12.50;74.10;;;;;;6037764;29;20520;-74
2021/01/29 07:07:32;;;;;;;6.57;4.07;;;12.40;74.10;;;;;;6075933;29;20371;-74
2021/01/29 07:10:51;;;;;;;8.00;3.45;;;12.50;74.20;;;;;;6059034;29;20379;-75
2021/01/29 07:14:10;;;;;;;;;;;12.50;74.20;;;;;;6060441;29;20040;-75
2021/01/29 07:17:49;;;;;;;6.00;3.40;;;12.50;74.00;;;;;;6118137;28;19918;-76
2021/01/29 07:20:50;;;;;;;9.33;4.20;;;12.50;73.90;;;;;;6114025;29;20035;-74
2021/01/29 07:23:51;;;;;;;9.55;4.72;;;12.50;74.10;;;;;;6126932;29;20272;-77
2021/01/29 07:27:21;;;;;;;9.38;4.95;;;12.50;74.20;;;;;;6136562;29;20036;-75
2021/01/29 07:30:53;;;;;;;6.43;4.20;;;12.50;74.30;;;;;;6029950;29;20555;-75
2021/01/29 07:34:06;;;;;;;10.13;3.95;;;12.50;74.20;;;;;;6012308;29;20434;-75
2021/01/29 07:37:13;;;;;;;13.23;4.30;;;12.50;74.30;;;;;;5999390;29;20092;-74
2021/01/29 07:40:29;;;;;;;9.20;3.33;;;12.50;74.60;;;;;;6030031;29;20042;-74
2021/01/29 07:43:46;;;;;;;7.18;3.08;;;12.40;74.80;;;;;;6026075;29;20037;-79
2021/01/29 07:47:13;;;;;;;8.70;4.15;;;12.50;75.10;;;;;;6029626;29;20148;-79
2021/01/29 07:50:45;;;;;;;7.05;3.17;;;12.50;75.30;;;;;;6045548;29;20111;-78
2021/01/29 07:54:08;;;;;;;9.55;3.83;;;12.50;75.50;;;;;;6039110;29;20073;-78
2021/01/29 07:57:39;;;;;;;7.20;4.00;;;12.50;75.50;;;;;;6034220;29;20045;-79
2021/01/29 08:00:45;;;;;;;8.23;4.28;;;12.50;75.50;;;;;;6062853;29;20049;-78
2021/01/29 08:03:54;;;;;;;15.30;4.68;;;12.50;75.40;;;;;;6061208;29;20041;-78
2021/01/29 08:06:56;;;;;;;9.93;5.13;;;12.60;75.30;;;;;;6171518;28;20372;-79
2021/01/29 08:10:03;;;;;;;9.00;4.57;;;12.70;75.40;;;;;;6182091;28;20042;-79
2021/01/29 08:13:29;;;;;;;16.52;6.03;;;12.70;75.40;;;;;;6183679;28;20114;-79
2021/01/29 08:16:49;;;;;;;25.48;11.02;;;12.80;75.30;;;;;;6212554;28;20038;-78
2021/01/29 08:20:33;;;;;;;12.93;5.88;;;12.80;75.10;;;;;;6220957;28;20030;-78
2021/01/29 08:24:06;;;;;;;30.77;16.02;;;12.90;75.10;;;;;;6084311;29;20165;-78
2021/01/29 08:27:25;;;;;;;10.30;5.65;;;12.90;75.00;;;;;;6086579;29;20131;-78
2021/01/29 08:31:07;;;;;;;18.75;5.65;;;12.90;74.90;;;;;;6093405;29;20044;-79
2021/01/29 08:34:58;;;;;;;13.00;5.43;;;13.00;74.90;;;;;;5998526;29;20046;-78
2021/01/29 08:38:27;;;;;;;9.60;5.05;;;13.00;75.60;;;;;;5983986;29;20043;-78
2021/01/29 08:42:00;;;;;;;15.33;5.90;;;13.10;74.80;;;;;;5979350;29;20480;-77
2021/01/29 08:45:21;;;;;;;12.43;5.13;;;13.20;74.70;;;;;;5973107;29;20038;-77
2021/01/29 08:48:29;;;;;;;12.45;5.85;;;13.30;74.40;;;;;;5989392;29;20495;-78
2021/01/29 08:51:58;;;;;;;6.47;4.70;;;13.40;74.30;;;;;;5997840;29;20113;-79
2021/01/29 08:55:19;;;;;;;;;;;13.50;74.20;;;;;;5981298;29;20477;-78
2021/01/29 08:59:01;;;;;;;13.10;4.53;;;13.70;73.90;;;;;;6003229;29;19919;-79
2021/01/29 09:02:21;;;;;;;8.80;4.88;;;13.80;73.20;;;;;;6071350;29;20048;-79
2021/01/29 09:05:26;;;;;;;17.15;6.70;;;13.90;73.10;;;;;;6157200;28;20038;-78
2021/01/29 09:08:28;;;;;;;13.63;7.05;;;14.00;72.90;;;;;;6186178;28;20134;-77
2021/01/29 09:11:34;;;;;;;12.95;6.07;;;14.10;73.00;;;;;;6203210;28;20468;-71
2021/01/29 09:14:39;;;;;;;10.73;6.53;;;14.20;72.80;;;;;;6196092;28;20038;-72
2021/01/29 09:17:52;;;;;;;8.60;5.57;;;14.20;72.50;;;;;;6196195;28;20065;-73
2021/01/29 09:21:12;;;;;;;9.02;5.22;;;14.30;72.40;;;;;;6195036;28;20026;-72
2021/01/29 09:24:42;;;;;;;10.77;5.80;;;14.20;72.40;;;;;;6184886;28;20320;-73
2021/01/29 09:28:10;;;;;;;12.88;5.95;;;14.20;72.40;;;;;;6161975;28;20030;-72
2021/01/29 09:31:22;;;;;;;10.18;5.55;;;14.30;72.60;;;;;;6198225;28;20498;-73
2021/01/29 09:34:31;;;;;;;19.02;7.75;;;14.30;72.40;;;;;;6195380;28;20104;-73
2021/01/29 09:37:34;;;;;;;14.25;6.30;;;14.40;72.30;;;;;;6160309;28;20034;-73
2021/01/29 09:40:58;;;;;;;14.05;6.18;;;14.40;72.30;;;;;;6182188;28;20038;-73
2021/01/29 09:44:21;;;;;;;9.73;5.30;;;14.60;72.30;;;;;;6181004;28;20030;-73
2021/01/29 09:47:24;;;;;;;10.05;3.65;;;14.60;71.70;;;;;;6176265;28;20134;-72
2021/01/29 09:50:29;;;;;;;7.57;3.28;;;14.70;70.80;;;;;;6178253;28;20045;-73
2021/01/29 09:53:39;;;;;;;2.70;1.70;;;14.80;69.50;;;;;;6180694;28;20045;-74
2021/01/29 09:56:44;;;;;;;2.80;1.50;;;15.00;68.70;;;;;;6189282;28;20038;-72
2021/01/29 10:00:13;;;;;;;0.90;0.52;;;15.30;68.40;;;;;;6199992;28;20038;-73
2021/01/29 10:03:31;;;;;;;0.82;0.60;;;15.60;65.80;;;;;;6203551;28;20030;-74
2021/01/29 10:06:40;;;;;;;1.35;0.50;;;15.90;62.20;;;;;;6171728;28;20348;-73
2021/01/29 10:09:56;;;;;;;3.80;1.35;;;16.20;58.80;;;;;;6186705;28;20467;-74
2021/01/29 10:13:09;;;;;;;1.38;0.50;;;16.60;57.40;;;;;;6195034;28;20049;-77
2021/01/29 10:16:45;;;;;;;0.88;0.60;;;16.90;56.30;;;;;;6196502;28;20106;-73
2021/01/29 10:20:07;;;;;;;3.97;0.47;;;17.20;55.40;;;;;;6201566;28;20042;-73
2021/01/29 10:23:29;;;;;;;1.05;0.60;;;17.40;54.00;;;;;;6199632;28;20048;-73
2021/01/29 10:26:46;;;;;;;1.27;0.52;;;17.60;53.10;;;;;;6200749;28;20034;-74
2021/01/29 10:29:58;;;;;;;0.30;0.30;;;17.70;52.20;;;;;;6183998;28;20098;-73
2021/01/29 10:33:05;;;;;;;1.33;0.50;;;17.70;51.90;;;;;;6178125;28;20058;-74
2021/01/29 10:36:11;;;;;;;0.82;0.50;;;17.90;51.60;;;;;;6173379;28;20133;-73
2021/01/29 10:39:19;;;;;;;1.75;0.63;;;18.10;51.50;;;;;;6192847;28;20037;-73
2021/01/29 10:42:26;;;;;;;0.40;0.40;;;18.30;50.40;;;;;;6202207;28;20034;-74
2021/01/29 10:45:52;;;;;;;0.38;0.32;;;18.50;50.40;;;;;;6175860;28;20270;-74
2021/01/29 10:49:28;;;;;;;2.65;0.75;;;18.70;49.40;;;;;;6191779;28;20364;-73
2021/01/29 10:53:00;;;;;;;0.52;0.35;;;18.90;49.40;;;;;;6182113;28;20050;-74
2021/01/29 10:56:13;;;;;;;1.40;0.55;;;19.10;48.50;;;;;;6166371;28;20113;-73
2021/01/29 10:59:23;;;;;;;1.17;0.45;;;19.30;46.90;;;;;;6191365;28;20060;-73
2021/01/29 11:02:34;;;;;;;2.83;0.63;;;19.50;46.50;;;;;;6168079;28;20365;-73
2021/01/29 11:05:42;;;;;;;0.32;0.32;;;19.70;45.10;;;;;;6196189;28;20041;-75
2021/01/29 11:08:47;;;;;;;0.20;0.15;;;19.90;42.80;;;;;;6196904;28;20023;-75
2021/01/29 11:12:17;;;;;;;0.47;0.40;;;20.00;41.60;;;;;;6195892;28;20077;-74
2021/01/29 11:15:35;;;;;;;0.65;0.52;;;20.10;41.50;;;;;;6204349;28;20041;-74
2021/01/29 11:18:37;;;;;;;1.02;0.50;;;20.30;41.00;;;;;;6203603;28;20109;-73
2021/01/29 11:22:07;;;;;;;1.52;0.68;;;20.40;41.30;;;;;;6211330;28;20109;-74
2021/01/29 11:25:19;;;;;;;0.43;0.30;;;20.60;40.90;;;;;;6215505;28;20034;-74
2021/01/29 11:28:35;;;;;;;4.53;0.38;;;20.80;39.70;;;;;;6238899;28;20034;-74
2021/01/29 11:31:46;;;;;;;1.13;0.50;;;20.90;39.80;;;;;;6230934;28;20434;-74
2021/01/29 11:35:20;;;;;;;2.85;0.77;;;21.20;39.50;;;;;;6208282;28;20049;-74
2021/01/29 11:38:58;;;;;;;0.45;0.22;;;21.40;37.70;;;;;;6202779;28;20072;-73
2021/01/29 11:42:08;;;;;;;7.57;0.70;;;21.70;37.70;;;;;;6204372;28;20442;-74
2021/01/29 11:45:27;;;;;;;0.70;0.40;;;22.20;37.70;;;;;;6202161;28;20034;-74
2021/01/29 11:48:31;;;;;;;1.48;0.57;;;22.80;37.30;;;;;;6203934;28;20041;-74
2021/01/29 11:51:44;;;;;;;1.13;0.28;;;23.30;36.20;;;;;;6186085;28;20054;-74
2021/01/29 11:54:53;;;;;;;1.90;0.70;;;23.40;36.50;;;;;;6204345;28;20053;-73
2021/01/29 11:58:12;;;;;;;1.77;0.80;;;23.80;36.00;;;;;;6200465;28;20051;-74
2021/01/29 12:01:41;;;;;;;0.75;0.50;;;24.30;35.30;;;;;;6204963;28;20041;-73
2021/01/29 12:04:49;;;;;;;0.40;0.40;;;24.70;33.90;;;;;;6205023;28;20488;-74
2021/01/29 12:08:03;;;;;;;1.25;0.60;;;24.40;33.90;;;;;;6201754;28;20050;-74
2021/01/29 12:11:11;;;;;;;1.00;0.60;;;24.00;34.20;;;;;;6219867;28;20411;-74
2021/01/29 12:14:24;;;;;;;;;;;23.50;34.90;;;;;;6199360;28;20352;-73
2021/01/29 12:17:28;;;;;;;1.80;0.60;;;22.90;35.50;;;;;;6200064;28;19976;-74
2021/01/29 12:20:32;;;;;;;2.85;0.70;;;22.30;37.00;;;;;;6204922;28;20037;-73
2021/01/29 12:23:43;;;;;;;1.38;0.60;;;21.80;38.00;;;;;;6204657;28;20091;-74
2021/01/29 12:26:58;;;;;;;2.05;0.38;;;21.30;38.20;;;;;;6220627;28;20049;-74
2021/01/29 12:30:14;;;;;;;2.80;0.82;;;20.80;38.70;;;;;;6221277;28;20132;-73
2021/01/29 12:33:22;;;;;;;0.90;0.50;;;20.30;39.60;;;;;;6203561;28;20517;-73
2021/01/29 12:36:27;;;;;;;4.15;0.95;;;20.00;40.40;;;;;;6218930;28;20038;-75
2021/01/29 12:39:51;;;;;;;2.40;0.77;;;19.70;41.30;;;;;;6203946;28;20053;-75
2021/01/29 12:43:04;;;;;;;2.95;0.70;;;19.60;42.10;;;;;;6203730;28;20069;-74
2021/01/29 12:46:23;;;;;;;3.70;0.90;;;19.60;42.20;;;;;;6217640;28;20041;-74
2021/01/29 12:49:38;;;;;;;1.50;0.40;;;19.50;41.30;;;;;;6226426;28;20041;-74
2021/01/29 12:52:50;;;;;;;2.03;0.80;;;19.50;41.00;;;;;;6203438;28;20026;-73
2021/01/29 12:56:09;;;;;;;6.70;2.45;;;19.60;40.90;;;;;;6199909;28;20048;-74
2021/01/29 12:59:12;;;;;;;2.00;0.65;;;19.70;40.90;;;;;;6218085;28;20034;-73
2021/01/29 13:02:31;;;;;;;4.40;0.70;;;19.70;40.60;;;;;;6202638;28;20472;-76
2021/01/29 13:05:41;;;;;;;2.47;0.40;;;19.70;40.50;;;;;;6200370;28;20054;-73
2021/01/29 13:09:10;;;;;;;2.90;0.70;;;19.50;39.60;;;;;;6201954;28;20053;-73
2021/01/29 13:12:25;;;;;;;1.02;0.45;;;19.30;39.60;;;;;;6219742;28;20030;-73
2021/01/29 13:15:29;;;;;;;1.75;0.50;;;19.20;39.90;;;;;;6183283;28;20112;-74
2021/01/29 13:19:02;;;;;;;0.80;0.30;;;19.10;40.40;;;;;;6183095;28;20045;-74
2021/01/29 13:22:19;;;;;;;2.22;0.32;;;19.10;40.90;;;;;;6170551;28;20069;-72
2021/01/29 13:25:26;;;;;;;1.58;0.40;;;19.20;40.90;;;;;;6209613;28;20049;-73
2021/01/29 13:28:30;;;;;;;0.88;0.50;;;19.20;40.80;;;;;;6200734;28;20033;-73
2021/01/29 13:31:37;;;;;;;2.50;0.60;;;19.30;41.50;;;;;;6184907;28;20087;-74
2021/01/29 13:34:42;;;;;;;7.43;1.13;;;19.40;40.80;;;;;;6200910;28;20499;-73
2021/01/29 13:37:43;;;;;;;2.35;0.70;;;19.40;41.00;;;;;;6200946;28;20030;-74
2021/01/29 13:40:45;;;;;;;3.75;0.85;;;19.50;41.10;;;;;;6186122;28;20184;-76
2021/01/29 13:43:48;;;;;;;6.68;0.93;;;19.50;41.30;;;;;;6209368;28;20048;-73
2021/01/29 13:46:52;;;;;;;4.72;0.70;;;19.50;41.40;;;;;;6201528;28;20096;-73
2021/01/29 13:49:54;;;;;;;11.60;1.38;;;19.60;41.40;;;;;;6199916;28;20371;-73
2021/01/29 13:52:58;;;;;;;2.83;0.95;;;19.50;40.90;;;;;;6201497;28;20041;-74
2021/01/29 13:56:16;;;;;;;4.10;0.65;;;19.50;40.20;;;;;;6204632;28;20034;-73
2021/01/29 13:59:30;;;;;;;2.22;0.40;;;19.40;40.20;;;;;;6200695;28;20035;-74
2021/01/29 14:02:38;;;;;;;4.97;0.90;;;19.40;40.10;;;;;;6199496;28;20087;-73
2021/01/29 14:05:41;;;;;;;2.05;0.90;;;19.30;39.80;;;;;;6201814;28;20064;-73
2021/01/29 14:08:43;;;;;;;4.32;1.00;;;19.20;40.00;;;;;;6218270;28;20058;-73
2021/01/29 14:11:58;;;;;;;3.28;0.73;;;19.10;40.30;;;;;;6201918;28;20675;-73
2021/01/29 14:15:12;;;;;;;1.15;0.63;;;18.90;40.50;;;;;;6199417;28;20121;-73
2021/01/29 14:18:37;;;;;;;2.35;0.55;;;18.80;40.50;;;;;;6215469;28;20041;-73
2021/01/29 14:21:54;;;;;;;1.95;0.68;;;18.80;40.40;;;;;;6197617;28;20092;-73
2021/01/29 14:25:25;;;;;;;4.72;1.08;;;18.70;39.50;;;;;;6201227;28;20040;-74
2021/01/29 14:28:54;;;;;;;5.40;0.60;;;18.50;39.60;;;;;;6199972;28;20475;-74
2021/01/29 14:32:05;;;;;;;3.78;1.00;;;18.50;40.20;;;;;;6212534;28;20097;-73
2021/01/29 14:35:30;;;;;;;2.45;1.10;;;18.40;40.80;;;;;;6204147;28;20054;-73
2021/01/29 14:38:55;;;;;;;4.35;1.10;;;18.30;41.80;;;;;;6144471;28;20040;-73
2021/01/29 14:42:11;;;;;;;5.38;2.30;;;18.30;42.60;;;;;;6102509;28;20162;-73
2021/01/29 14:45:17;;;;;;;4.60;1.45;;;18.30;43.00;;;;;;6125717;29;20491;-73
2021/01/29 14:48:44;;;;;;;5.63;1.10;;;18.20;43.20;;;;;;6129003;29;20353;-73
2021/01/29 14:51:56;;;;;;;12.52;7.78;;;18.20;43.60;;;;;;6104180;29;20118;-73
2021/01/29 14:55:04;;;;;;;4.90;0.90;;;18.20;43.60;;;;;;6144297;28;20039;-73
2021/01/29 14:58:05;;;;;;;6.90;1.38;;;18.10;43.90;;;;;;6143709;28;20137;-73
2021/01/29 15:01:11;;;;;;;4.82;1.10;;;18.10;43.90;;;;;;6149028;29;20078;-73
2021/01/29 15:04:18;;;;;;;2.90;1.02;;;18.10;44.00;;;;;;6129690;29;20047;-73
2021/01/29 15:07:35;;;;;;;6.72;1.23;;;18.10;43.80;;;;;;6112658;29;20130;-73
2021/01/29 15:10:39;;;;;;;2.45;1.02;;;18.20;43.20;;;;;;6145548;28;20047;-74
2021/01/29 15:13:44;;;;;;;5.05;1.00;;;18.20;43.10;;;;;;6122464;28;20043;-74
2021/01/29 15:16:50;;;;;;;8.57;1.40;;;18.20;43.10;;;;;;6212093;28;20034;-75
2021/01/29 15:20:05;;;;;;;1.25;0.63;;;18.20;43.00;;;;;;6227187;28;20058;-74
2021/01/29 15:23:08;;;;;;;3.78;1.10;;;18.10;43.10;;;;;;6219701;28;20371;-74
2021/01/29 15:26:16;;;;;;;4.07;1.20;;;18.10;43.00;;;;;;6203910;28;20033;-74
2021/01/29 15:29:17;;;;;;;2.55;0.77;;;18.10;42.90;;;;;;6202421;28;20052;-75
2021/01/29 15:32:26;;;;;;;11.65;0.90;;;18.10;42.40;;;;;;6205523;28;20042;-73
2021/01/29 15:35:32;;;;;;;3.35;0.80;;;18.00;41.80;;;;;;6203402;28;20046;-74
2021/01/29 15:38:57;;;;;;;3.58;1.00;;;17.90;42.00;;;;;;6204202;28;20034;-73
2021/01/29 15:42:01;;;;;;;4.43;1.10;;;17.90;42.10;;;;;;6220888;28;20066;-73
2021/01/29 15:45:03;;;;;;;7.28;1.80;;;17.80;42.30;;;;;;6223470;28;20046;-74
2021/01/29 15:48:07;;;;;;;6.93;1.30;;;17.80;42.50;;;;;;6205798;28;20034;-74
2021/01/29 15:51:09;;;;;;;1.70;0.65;;;17.80;43.40;;;;;;6227165;28;20422;-74
2021/01/29 15:54:25;;;;;;;2.10;0.60;;;17.70;42.60;;;;;;6203345;28;20045;-73
2021/01/29 15:57:36;;;;;;;5.53;1.00;;;17.70;42.80;;;;;;6183976;28;20030;-73
2021/01/29 16:00:37;;;;;;;9.48;0.98;;;17.60;42.90;;;;;;6203212;28;20034;-75
2021/01/29 16:03:45;;;;;;;5.60;1.15;;;17.50;43.00;;;;;;6195455;28;20108;-74
2021/01/29 16:07:03;;;;;;;2.53;0.90;;;17.50;43.30;;;;;;6201475;28;20503;-74
2021/01/29 16:10:04;;;;;;;4.25;1.42;;;17.40;43.40;;;;;;6201608;28;20034;-75
2021/01/29 16:13:17;;;;;;;3.50;0.98;;;17.40;43.70;;;;;;6189131;28;20355;-73
2021/01/29 16:16:27;;;;;;;4.00;0.98;;;17.30;43.90;;;;;;6203518;28;20149;-74
2021/01/29 16:19:29;;;;;;;8.93;1.38;;;17.30;44.00;;;;;;6176026;28;20078;-74
2021/01/29 16:22:30;;;;;;;5.13;1.63;;;17.30;44.00;;;;;;6184417;28;20030;-73
2021/01/29 16:25:34;;;;;;;5.75;0.90;;;17.30;44.20;;;;;;6197722;28;20044;-76
2021/01/29 16:28:42;;;;;;;3.45;1.13;;;17.20;44.40;;;;;;6203816;28;20038;-74
2021/01/29 16:31:46;;;;;;;3.78;1.13;;;17.20;44.50;;;;;;6220519;28;20129;-74
2021/01/29 16:34:47;;;;;;;4.82;1.50;;;17.20;44.70;;;;;;6202156;28;20361;-73
2021/01/29 16:37:49;;;;;;;5.30;0.82;;;17.10;44.80;;;;;;6222810;28;20095;-74
2021/01/29 16:40:50;;;;;;;4.38;1.38;;;17.00;44.90;;;;;;6206840;28;20419;-74
2021/01/29 16:43:54;;;;;;;5.20;0.93;;;17.00;45.10;;;;;;6204114;28;20468;-74
2021/01/29 16:47:23;;;;;;;5.78;1.40;;;16.90;45.20;;;;;;6194350;28;20052;-73
2021/01/29 16:50:31;;;;;;;4.20;0.95;;;16.80;45.10;;;;;;6220202;28;20026;-75
2021/01/29 16:53:35;;;;;;;6.72;1.50;;;16.80;45.30;;;;;;6221317;28;20069;-79
2021/01/29 16:56:36;;;;;;;5.45;1.75;;;16.70;45.40;;;;;;6203220;28;20041;-73
2021/01/29 16:59:39;;;;;;;5.63;1.27;;;16.70;45.30;;;;;;6215684;28;20364;-76
2021/01/29 17:02:43;;;;;;;10.23;1.90;;;16.70;45.30;;;;;;6176869;28;20038;-76